createdAt,value
2023-05-09T00:02:29.801Z,101299.03
2023-05-09T00:05:32.930Z,101279.53
2023-05-09T00:08:36.327Z,101295.56
2023-05-09T00:11:39.703Z,101288.75
2023-05-09T00:14:45.659Z,101283.53
2023-05-09T00:17:48.647Z,101291.81
2023-05-09T00:20:51.607Z,101275.88
2023-05-09T00:23:54.530Z,101277.53
2023-05-09T00:26:57.430Z,101276.94
2023-05-09T00:30:00.375Z,101275.75
2023-05-09T00:33:03.406Z,101282.25
2023-05-09T00:36:06.763Z,101281.09
2023-05-09T00:39:10.035Z,101280.31
2023-05-09T00:42:14.298Z,101271.88
2023-05-09T00:45:17.595Z,101275.44
2023-05-09T00:48:22.656Z,101278.94
2023-05-09T00:51:26.018Z,101275.03
2023-05-09T00:54:29.169Z,101280.25
2023-05-09T00:57:32.039Z,101284.59
2023-05-09T01:00:34.795Z,101281.25
2023-05-09T01:03:40.033Z,101272.75
2023-05-09T01:07:06.442Z,101273.75
2023-05-09T01:10:29.600Z,101287.38
2023-05-09T01:13:59.800Z,101287.25
2023-05-09T01:17:13.729Z,101285.66
2023-05-09T01:20:46.852Z,101294.06
2023-05-09T01:24:08.860Z,101289.19
2023-05-09T01:27:27.283Z,101275.31
2023-05-09T01:30:33.546Z,101275.31
2023-05-09T01:33:40.898Z,101285.59
2023-05-09T01:36:46.133Z,101270.78
2023-05-09T01:39:53.497Z,101270.38
2023-05-09T01:43:04.997Z,101273.50
2023-05-09T01:46:09.526Z,101268.88
2023-05-09T01:49:13.192Z,101265.28
2023-05-09T01:52:20.357Z,101272.22
2023-05-09T01:55:26.065Z,101266.56
2023-05-09T01:58:30.153Z,101273.16
2023-05-09T02:01:33.284Z,101267.91
2023-05-09T02:04:37.837Z,101267.63
2023-05-09T02:07:42.876Z,101266.63
2023-05-09T02:10:48.191Z,101267.31
2023-05-09T02:13:51.483Z,101271.41
2023-05-09T02:16:54.882Z,101267.94
2023-05-09T02:19:58.425Z,101257.47
2023-05-09T02:23:01.712Z,101263.31
2023-05-09T02:26:04.924Z,101273.50
2023-05-09T02:29:08.576Z,101257.22
2023-05-09T02:32:18.242Z,101269.13
2023-05-09T02:35:23.569Z,101257.88
2023-05-09T02:38:27.426Z,101259.50
2023-05-09T02:41:32.139Z,101254.28
2023-05-09T02:44:35.752Z,101263.72
2023-05-09T02:47:40.429Z,101261.72
2023-05-09T02:50:44.748Z,101270.38
2023-05-09T02:53:48.434Z,101257.47
2023-05-09T02:56:52.533Z,101270.13
2023-05-09T02:59:57.651Z,101268.09
2023-05-09T03:03:02.736Z,101266.38
2023-05-09T03:06:06.852Z,101268.00
2023-05-09T03:09:11.886Z,101256.84
2023-05-09T03:12:17.414Z,101264.66
2023-05-09T03:15:24.382Z,101258.47
2023-05-09T03:18:32.575Z,101266.94
2023-05-09T03:21:49.364Z,101266.94
2023-05-09T03:25:06.277Z,101264.44
2023-05-09T03:28:12.908Z,101275.31
2023-05-09T03:31:17.885Z,101272.69
2023-05-09T03:34:24.907Z,101275.06
2023-05-09T03:37:28.886Z,101275.81
2023-05-09T03:40:41.675Z,101275.88
2023-05-09T03:43:48.546Z,101283.53
2023-05-09T03:46:57.649Z,101284.31
2023-05-09T03:50:03.092Z,101275.78
2023-05-09T03:53:10.795Z,101280.09
2023-05-09T03:56:19.177Z,101275.16
2023-05-09T03:59:32.268Z,101298.75
2023-05-09T04:02:37.148Z,101305.84
2023-05-09T04:05:41.802Z,101300.66
2023-05-09T04:08:54.090Z,101303.34
2023-05-09T04:11:57.864Z,101296.38
2023-05-09T04:15:02.698Z,101294.22
2023-05-09T04:18:08.572Z,101311.97
2023-05-09T04:21:12.218Z,101301.13
2023-05-09T04:24:16.829Z,101300.69
2023-05-09T04:27:24.201Z,101306.47
2023-05-09T04:30:28.204Z,101307.22
2023-05-09T04:33:32.194Z,101307.06
2023-05-09T04:36:39.018Z,101298.41
2023-05-09T04:39:42.334Z,101315.19
2023-05-09T04:42:53.684Z,101307.09
2023-05-09T04:46:01.547Z,101305.47
2023-05-09T04:49:06.197Z,101295.47
2023-05-09T04:52:09.571Z,101290.41
2023-05-09T04:55:13.316Z,101298.66
2023-05-09T04:58:20.817Z,101298.19
2023-05-09T05:01:24.458Z,101301.34
2023-05-09T05:04:28.688Z,101293.94
2023-05-09T05:07:35.149Z,101284.47
2023-05-09T05:10:47.460Z,101295.50
2023-05-09T05:13:53.269Z,101307.91
2023-05-09T05:16:57.188Z,101308.59
2023-05-09T05:20:01.997Z,101300.03
2023-05-09T05:23:12.957Z,101305.31
2023-05-09T05:26:36.529Z,101310.34
2023-05-09T05:29:50.601Z,101300.91
2023-05-09T05:32:54.515Z,101301.50
2023-05-09T05:36:00.428Z,101300.03
2023-05-09T05:39:44.236Z,101302.34
2023-05-09T05:42:57.137Z,101303.34
2023-05-09T05:46:04.147Z,101297.88
2023-05-09T05:49:09.218Z,101287.41
2023-05-09T05:52:15.265Z,101296.19
2023-05-09T05:55:20.891Z,101297.91
2023-05-09T05:58:32.890Z,101302.59
2023-05-09T06:01:39.609Z,101298.78
2023-05-09T06:04:43.849Z,101302.16
2023-05-09T06:07:51.003Z,101306.25
2023-05-09T06:11:08.402Z,101302.66
2023-05-09T06:14:12.125Z,101296.63
2023-05-09T06:17:16.009Z,101293.28
2023-05-09T06:20:28.756Z,101302.66
2023-05-09T06:23:32.271Z,101302.84
2023-05-09T06:26:36.472Z,101299.28
2023-05-09T06:29:40.662Z,101307.41
2023-05-09T06:32:44.160Z,101302.50
2023-05-09T06:35:48.004Z,101297.84
2023-05-09T06:39:03.541Z,101296.56
2023-05-09T06:42:11.296Z,101286.28
2023-05-09T06:45:16.667Z,101297.59
2023-05-09T06:48:19.951Z,101298.97
2023-05-09T06:51:33.424Z,101296.69
2023-05-09T06:54:46.115Z,101289.59
2023-05-09T06:57:49.889Z,101298.09
2023-05-09T07:00:57.018Z,101297.47
2023-05-09T07:04:14.422Z,101294.88
2023-05-09T07:07:20.301Z,101294.56
2023-05-09T07:10:34.997Z,101282.28
2023-05-09T07:13:40.167Z,101279.88
2023-05-09T07:16:47.084Z,101292.13
2023-05-09T07:19:53.083Z,101296.25
2023-05-09T07:23:00.027Z,101285.31
2023-05-09T07:26:04.026Z,101288.22
2023-05-09T07:29:20.985Z,101278.72
2023-05-09T07:32:25.015Z,101283.38
2023-05-09T07:35:30.249Z,101293.50
2023-05-09T07:38:48.664Z,101273.06
2023-05-09T07:41:56.963Z,101278.25
2023-05-09T07:45:01.359Z,101273.16
2023-05-09T07:48:12.524Z,101274.81
2023-05-09T07:51:20.404Z,101275.28
2023-05-09T07:54:32.687Z,101268.78
2023-05-09T07:57:38.219Z,101250.81
2023-05-09T08:00:45.624Z,101256.56
2023-05-09T08:03:53.895Z,101266.91
2023-05-09T08:07:12.729Z,101261.66
2023-05-09T08:10:17.487Z,101257.09
2023-05-09T08:13:36.374Z,101247.06
2023-05-09T08:16:44.162Z,101239.38
2023-05-09T08:20:18.245Z,101247.34
2023-05-09T08:23:41.831Z,101230.88
2023-05-09T08:26:45.482Z,101239.69
2023-05-09T08:29:49.153Z,101235.47
2023-05-09T08:32:56.798Z,101236.66
2023-05-09T08:36:09.746Z,101248.66
2023-05-09T08:39:20.313Z,101220.50
2023-05-09T08:42:26.741Z,101243.66
2023-05-09T08:45:36.253Z,101243.75
2023-05-09T08:48:48.552Z,101240.59
2023-05-09T08:51:53.967Z,101244.03
2023-05-09T08:55:07.902Z,101244.28
2023-05-09T08:58:15.285Z,101238.28
2023-05-09T09:01:36.680Z,101237.03
2023-05-09T09:04:49.520Z,101223.44
2023-05-09T09:08:00.336Z,101221.22
2023-05-09T09:11:07.700Z,101217.88
2023-05-09T09:14:23.044Z,101213.59
2023-05-09T09:17:30.362Z,101222.34
2023-05-09T09:20:36.177Z,101224.94
2023-05-09T09:23:46.487Z,101227.63
2023-05-09T09:26:53.953Z,101218.91
2023-05-09T09:30:13.908Z,101211.09
2023-05-09T09:33:25.430Z,101206.31
2023-05-09T09:36:38.783Z,101218.34
2023-05-09T09:39:55.917Z,101215.63
2023-05-09T09:43:08.381Z,101209.59
2023-05-09T09:46:12.127Z,101196.72
2023-05-09T09:49:20.599Z,101203.66
2023-05-09T09:52:34.494Z,101210.63
2023-05-09T09:55:52.831Z,101205.25
2023-05-09T09:59:25.232Z,101194.19
2023-05-09T10:02:59.777Z,101169.63
2023-05-09T10:06:21.176Z,101198.19
2023-05-09T10:09:37.675Z,101169.75
2023-05-09T10:16:43.739Z,101182.78
2023-05-09T10:19:56.744Z,101158.53
2023-05-09T10:23:08.965Z,101173.53
2023-05-09T10:26:41.079Z,101172.16
2023-05-09T10:30:42.975Z,101164.28
2023-05-09T10:33:58.711Z,101147.13
2023-05-09T10:37:09.878Z,101164.63
2023-05-09T10:40:26.939Z,101158.16
2023-05-09T10:43:49.630Z,101164.72
2023-05-09T10:47:09.797Z,101160.03
2023-05-09T10:50:30.991Z,101145.78
2023-05-09T10:53:53.573Z,101162.81
2023-05-09T10:57:19.001Z,101150.63
2023-05-09T11:01:16.306Z,101145.16
2023-05-09T11:04:38.330Z,101138.25
2023-05-09T11:07:48.305Z,101120.06
2023-05-09T11:11:08.613Z,101136.41
2023-05-09T11:14:31.113Z,101144.16
2023-05-09T11:17:40.391Z,101118.13
2023-05-09T11:21:00.188Z,101113.72
2023-05-09T11:24:38.293Z,101125.28
2023-05-09T11:27:53.234Z,101107.28
2023-05-09T11:31:28.121Z,101114.28
2023-05-09T11:34:31.982Z,101112.13
2023-05-09T11:38:01.539Z,101113.81
2023-05-09T11:41:16.911Z,101100.97
2023-05-09T11:44:30.609Z,101100.94
2023-05-09T11:47:51.293Z,101081.06
2023-05-09T11:51:08.133Z,101104.94
2023-05-09T11:54:21.160Z,101076.97
2023-05-09T11:57:44.032Z,101085.91
2023-05-09T12:00:54.622Z,101076.13
2023-05-09T12:05:14.757Z,101093.16
2023-05-09T12:08:38.597Z,101082.50
2023-05-09T12:11:55.374Z,101058.56
2023-05-09T12:15:11.396Z,101078.53
2023-05-09T12:18:19.134Z,101081.28
2023-05-09T12:21:31.874Z,101072.78
2023-05-09T12:24:46.662Z,101067.47
2023-05-09T12:27:54.970Z,101049.41
2023-05-09T12:31:03.378Z,101054.22
2023-05-09T12:34:11.708Z,101068.63
2023-05-09T12:37:22.178Z,101042.78
2023-05-09T12:40:29.207Z,101038.59
2023-05-09T12:43:34.482Z,101058.03
2023-05-09T12:46:39.227Z,101051.91
2023-05-09T12:49:44.174Z,101053.59
2023-05-09T12:53:02.595Z,101052.22
2023-05-09T12:56:40.292Z,101047.06
2023-05-09T12:59:49.584Z,101043.69
2023-05-09T13:02:54.191Z,101039.53
2023-05-09T13:06:23.394Z,101024.31
2023-05-09T13:10:19.537Z,101025.91
2023-05-09T13:14:13.121Z,101023.78
2023-05-09T13:17:24.176Z,100992.47
2023-05-09T13:20:52.121Z,101014.94
2023-05-09T13:24:02.510Z,101006.19
2023-05-09T13:27:25.233Z,101004.25
2023-05-09T13:31:21.646Z,101016.38
2023-05-09T13:35:23.581Z,101008.28
2023-05-09T13:38:10.545Z,101016.06
2023-05-09T13:41:53.372Z,100993.25
2023-05-09T13:45:00.638Z,100996.44
2023-05-09T13:48:09.481Z,101005.19
2023-05-09T13:51:36.530Z,101002.53
2023-05-09T13:55:22.177Z,100976.00
2023-05-09T13:59:37.640Z,100990.25
2023-05-09T14:03:47.460Z,100979.88
2023-05-09T14:10:31.251Z,100973.00
2023-05-09T14:13:49.418Z,100971.22
2023-05-09T14:16:55.051Z,100968.31
2023-05-09T14:19:58.548Z,100977.72
2023-05-09T14:23:06.789Z,100970.28
2023-05-09T14:26:14.085Z,100961.66
2023-05-09T14:29:17.779Z,100962.81
2023-05-09T14:32:22.284Z,100961.97
2023-05-09T14:35:34.774Z,100957.34
2023-05-09T14:38:40.522Z,100953.03
2023-05-09T14:41:43.993Z,100960.53
2023-05-09T14:44:47.616Z,100971.31
2023-05-09T14:47:54.262Z,100957.50
2023-05-09T14:50:58.244Z,100959.22
2023-05-09T14:54:04.387Z,100945.53
2023-05-09T14:57:08.679Z,100950.88
2023-05-09T15:00:21.884Z,100948.81
2023-05-09T15:03:26.914Z,100950.13
2023-05-09T15:06:35.303Z,100949.75
2023-05-09T15:09:42.270Z,100937.50
2023-05-09T15:12:46.516Z,100937.34
2023-05-09T15:15:52.206Z,100938.38
2023-05-09T15:18:55.824Z,100931.00
2023-05-09T15:22:00.922Z,100937.06
2023-05-09T15:25:06.291Z,100937.16
2023-05-09T15:28:14.435Z,100929.34
2023-05-09T15:31:21.945Z,100917.97
2023-05-09T15:34:26.287Z,100913.31
2023-05-09T15:37:30.832Z,100916.38
2023-05-09T15:40:34.201Z,100913.84
2023-05-09T15:43:40.775Z,100916.63
2023-05-09T15:46:44.309Z,100910.81
2023-05-09T15:49:47.218Z,100903.94
2023-05-09T15:52:52.745Z,100905.66
2023-05-09T15:55:57.367Z,100905.03
2023-05-09T15:59:00.945Z,100900.00
2023-05-09T16:02:06.903Z,100895.41
2023-05-09T16:05:12.110Z,100884.16
2023-05-09T16:08:18.378Z,100885.09
2023-05-09T16:11:21.944Z,100887.25
2023-05-09T16:14:25.335Z,100888.59
2023-05-09T16:17:32.085Z,100877.44
2023-05-09T16:20:35.676Z,100889.03
2023-05-09T16:23:40.282Z,100889.75
2023-05-09T16:26:43.566Z,100882.25
2023-05-09T16:29:47.243Z,100877.03
2023-05-09T16:32:52.712Z,100885.50
2023-05-09T16:35:56.180Z,100894.69
2023-05-09T16:38:59.436Z,100883.09
2023-05-09T16:42:02.617Z,100888.75
2023-05-09T16:45:07.138Z,100892.59
2023-05-09T16:48:10.762Z,100885.81
2023-05-09T16:51:14.501Z,100885.09
2023-05-09T16:54:17.886Z,100880.28
2023-05-09T16:57:21.164Z,100876.19
2023-05-09T17:00:24.351Z,100879.84
2023-05-09T17:03:27.726Z,100878.56
2023-05-09T17:06:31.070Z,100869.19
2023-05-09T17:09:34.286Z,100880.34
2023-05-09T17:12:40.777Z,100865.31
2023-05-09T17:15:44.137Z,100873.59
2023-05-09T17:18:47.906Z,100873.47
2023-05-09T17:21:53.654Z,100868.19
2023-05-09T17:24:57.635Z,100869.97
2023-05-09T17:28:00.934Z,100872.13
2023-05-09T17:31:04.420Z,100874.47
2023-05-09T17:34:10.159Z,100876.09
2023-05-09T17:37:14.757Z,100876.84
2023-05-09T17:40:18.460Z,100879.97
2023-05-09T17:43:22.754Z,100879.94
2023-05-09T17:46:26.656Z,100883.22
2023-05-09T17:49:30.164Z,100877.91
2023-05-09T17:52:34.640Z,100879.38
2023-05-09T17:55:39.652Z,100882.69
2023-05-09T17:58:45.601Z,100886.06
2023-05-09T18:01:49.074Z,100881.56
2023-05-09T18:04:52.652Z,100889.81
2023-05-09T18:07:56.866Z,100878.34
2023-05-09T18:11:00.042Z,100883.28
2023-05-09T18:14:03.837Z,100889.13
2023-05-09T18:17:07.117Z,100880.59
2023-05-09T18:20:10.559Z,100888.72
2023-05-09T18:23:15.828Z,100898.69
2023-05-09T18:26:19.926Z,100887.19
2023-05-09T18:29:23.920Z,100900.50
2023-05-09T18:32:27.341Z,100895.88
2023-05-09T18:35:30.787Z,100897.19
2023-05-09T18:38:38.365Z,100885.94
2023-05-09T18:41:43.376Z,100874.28
2023-05-09T18:44:46.866Z,100906.53
2023-05-09T18:47:50.199Z,100906.47
2023-05-09T18:50:53.318Z,100903.25
2023-05-09T18:53:56.906Z,100903.81
2023-05-09T18:57:00.503Z,100915.31
2023-05-09T19:00:03.778Z,100909.75
2023-05-09T19:03:07.166Z,100908.31
2023-05-09T19:06:10.754Z,100911.00
2023-05-09T19:09:13.624Z,100906.94
2023-05-09T19:12:17.788Z,100906.34
2023-05-09T19:15:21.302Z,100906.56
2023-05-09T19:18:24.444Z,100900.75
2023-05-09T19:21:28.568Z,100900.13
2023-05-09T19:24:33.075Z,100900.88
2023-05-09T19:27:36.064Z,100909.88
2023-05-09T19:30:39.229Z,100906.88
2023-05-09T19:33:45.799Z,100905.44
2023-05-09T19:36:49.674Z,100905.03
2023-05-09T19:39:53.160Z,100892.38
2023-05-09T19:42:56.749Z,100905.41
2023-05-09T19:46:00.291Z,100898.91
2023-05-09T19:49:04.439Z,100910.09
2023-05-09T19:52:08.837Z,100913.69
2023-05-09T19:55:16.023Z,100908.78
2023-05-09T19:58:20.511Z,100908.56
2023-05-09T20:01:24.329Z,100900.19
2023-05-09T20:04:27.685Z,100907.75
2023-05-09T20:07:31.180Z,100905.44
2023-05-09T20:10:34.670Z,100899.47
2023-05-09T20:13:38.042Z,100900.38
2023-05-09T20:16:42.755Z,100897.19
2023-05-09T20:19:46.438Z,100904.81
2023-05-09T20:22:49.718Z,100902.34
2023-05-09T20:25:53.207Z,100891.44
2023-05-09T20:29:01.588Z,100898.47
2023-05-09T20:32:04.844Z,100897.13
2023-05-09T20:35:08.368Z,100904.81
2023-05-09T20:38:12.360Z,100900.47
2023-05-09T20:41:15.442Z,100902.78
2023-05-09T20:44:19.354Z,100904.47
2023-05-09T20:47:26.932Z,100902.56
2023-05-09T20:50:30.196Z,100898.34
2023-05-09T20:53:35.024Z,100891.66
2023-05-09T20:56:37.793Z,100896.88
2023-05-09T20:59:40.648Z,100891.72
2023-05-09T21:02:43.447Z,100897.03
2023-05-09T21:05:46.369Z,100892.00
2023-05-09T21:08:49.348Z,100894.44
2023-05-09T21:11:52.235Z,100891.84
2023-05-09T21:14:55.113Z,100886.53
2023-05-09T21:17:57.895Z,100892.41
2023-05-09T21:21:03.195Z,100890.88
2023-05-09T21:24:09.264Z,100888.38
2023-05-09T21:27:12.219Z,100889.28
2023-05-09T21:30:15.065Z,100883.09
2023-05-09T21:33:18.156Z,100890.13
2023-05-09T21:36:21.318Z,100890.47
2023-05-09T21:39:24.361Z,100887.25
2023-05-09T21:42:27.437Z,100885.72
2023-05-09T21:45:30.648Z,100883.41
2023-05-09T21:48:33.652Z,100886.06
2023-05-09T21:51:36.718Z,100884.38
2023-05-09T21:54:39.893Z,100884.19
2023-05-09T21:57:43.252Z,100891.03
2023-05-09T22:00:46.119Z,100884.06
2023-05-09T22:03:49.382Z,100871.03
2023-05-09T22:06:54.925Z,100872.84
2023-05-09T22:09:57.825Z,100884.19
2023-05-09T22:13:00.683Z,100881.72
2023-05-09T22:16:04.188Z,100884.53
2023-05-09T22:19:07.329Z,100875.31
2023-05-09T22:22:10.507Z,100877.25
2023-05-09T22:25:13.378Z,100868.50
2023-05-09T22:28:16.760Z,100877.91
2023-05-09T22:31:22.606Z,100880.63
2023-05-09T22:34:25.684Z,100877.91
2023-05-09T22:37:28.762Z,100875.38
2023-05-09T22:40:32.137Z,100876.50
2023-05-09T22:43:39.151Z,100878.50
2023-05-09T22:46:45.529Z,100876.13
2023-05-09T22:49:49.751Z,100868.31
2023-05-09T22:52:53.854Z,100859.78
2023-05-09T22:55:57.143Z,100859.91
2023-05-09T22:59:00.162Z,100866.84
2023-05-09T23:02:03.526Z,100862.56
2023-05-09T23:05:07.170Z,100855.91
2023-05-09T23:08:10.421Z,100855.03
2023-05-09T23:11:13.392Z,100856.06
2023-05-09T23:14:16.294Z,100852.44
2023-05-09T23:17:19.283Z,100845.84
2023-05-09T23:20:22.233Z,100848.50
2023-05-09T23:23:25.434Z,100850.44
2023-05-09T23:26:31.132Z,100845.28
2023-05-09T23:29:34.024Z,100843.13
2023-05-09T23:32:37.462Z,100839.91
2023-05-09T23:35:40.487Z,100834.34
2023-05-09T23:38:43.740Z,100845.66
2023-05-09T23:41:46.508Z,100840.00
2023-05-09T23:44:49.314Z,100834.03
2023-05-09T23:47:53.870Z,100835.03
2023-05-09T23:50:56.640Z,100827.34
2023-05-09T23:53:59.523Z,100824.06
2023-05-09T23:57:02.410Z,100821.66
